createdAt,value
2023-02-04T00:00:02.149Z,8.28
2023-02-04T00:02:29.104Z,8.28
2023-02-04T00:04:55.992Z,8.28
2023-02-04T00:07:22.926Z,8.28
2023-02-04T00:09:50.103Z,8.29
2023-02-04T00:12:17.427Z,8.29
2023-02-04T00:14:44.280Z,8.28
2023-02-04T00:17:12.902Z,8.29
2023-02-04T00:19:42.815Z,8.28
2023-02-04T00:22:10.077Z,8.28
2023-02-04T00:24:37.859Z,8.27
2023-02-04T00:27:06.116Z,8.26
2023-02-04T00:29:32.949Z,8.26
2023-02-04T00:31:59.901Z,8.26
2023-02-04T00:34:27.727Z,8.26
2023-02-04T00:36:54.604Z,8.26
2023-02-04T00:39:21.494Z,8.26
2023-02-04T00:41:48.392Z,8.25
2023-02-04T00:44:15.342Z,8.28
2023-02-04T00:46:42.640Z,8.25
2023-02-04T00:49:10.689Z,8.26
2023-02-04T00:51:39.272Z,8.27
2023-02-04T00:54:07.351Z,8.27
2023-02-04T00:56:34.789Z,8.26
2023-02-04T00:59:01.636Z,8.25
2023-02-04T01:01:28.724Z,8.26
2023-02-04T01:03:55.579Z,8.24
2023-02-04T01:06:23.971Z,8.24
2023-02-04T01:08:50.953Z,8.23
2023-02-04T01:11:18.649Z,8.24
2023-02-04T01:13:45.526Z,8.23
2023-02-04T01:16:13.059Z,8.22
2023-02-04T01:18:40.014Z,8.22
2023-02-04T01:21:07.123Z,8.20
2023-02-04T01:23:33.953Z,8.21
2023-02-04T01:26:00.798Z,8.18
2023-02-04T01:28:27.677Z,8.18
2023-02-04T01:30:54.845Z,8.16
2023-02-04T01:33:21.912Z,8.16
2023-02-04T01:35:48.774Z,8.15
2023-02-04T01:38:15.620Z,8.14
2023-02-04T01:40:43.394Z,8.14
2023-02-04T01:43:11.743Z,8.11
2023-02-04T01:45:39.389Z,8.11
2023-02-04T01:48:07.267Z,8.12
2023-02-04T01:50:34.545Z,8.10
2023-02-04T01:53:01.660Z,8.10
2023-02-04T01:55:31.408Z,8.08
2023-02-04T01:57:59.941Z,8.06
2023-02-04T02:00:30.457Z,8.05
2023-02-04T02:02:58.214Z,8.03
2023-02-04T02:05:42.196Z,8.00
2023-02-04T02:08:10.044Z,7.98
2023-02-04T02:10:39.555Z,7.95
2023-02-04T02:13:08.464Z,7.92
2023-02-04T02:15:39.100Z,7.89
2023-02-04T02:18:06.555Z,7.84
2023-02-04T02:20:33.777Z,7.82
2023-02-04T02:23:20.615Z,7.79
2023-02-04T02:25:48.415Z,7.77
2023-02-04T02:28:18.150Z,7.74
2023-02-04T02:30:46.183Z,7.73
2023-02-04T02:33:17.306Z,7.70
2023-02-04T02:35:48.145Z,7.68
2023-02-04T02:38:16.482Z,7.66
2023-02-04T02:40:43.817Z,7.64
2023-02-04T02:43:15.723Z,7.62
2023-02-04T02:45:43.035Z,7.61
2023-02-04T02:48:10.482Z,7.59
2023-02-04T02:50:37.731Z,7.58
2023-02-04T02:53:05.741Z,7.56
2023-02-04T02:55:32.647Z,7.53
2023-02-04T02:57:59.644Z,7.52
2023-02-04T03:00:30.755Z,7.49
2023-02-04T03:03:10.632Z,7.47
2023-02-04T03:05:41.732Z,7.46
2023-02-04T03:08:10.755Z,7.45
2023-02-04T03:10:37.838Z,7.45
2023-02-04T03:14:03.883Z,7.45
2023-02-04T03:16:33.522Z,7.45
2023-02-04T03:19:01.170Z,7.44
2023-02-04T03:21:28.459Z,7.45
2023-02-04T03:23:56.762Z,7.42
2023-02-04T03:26:24.873Z,7.40
2023-02-04T03:28:53.810Z,7.37
2023-02-04T03:31:21.092Z,7.33
2023-02-04T03:33:48.089Z,7.31
2023-02-04T03:36:14.920Z,7.27
2023-02-04T03:38:41.766Z,7.25
2023-02-04T03:41:08.594Z,7.23
2023-02-04T03:43:35.468Z,7.21
2023-02-04T03:46:02.399Z,7.20
2023-02-04T03:48:29.261Z,7.18
2023-02-04T03:50:56.088Z,7.16
2023-02-04T03:53:23.069Z,7.14
2023-02-04T03:55:49.904Z,7.11
2023-02-04T03:58:16.963Z,7.11
2023-02-04T04:00:43.894Z,7.08
2023-02-04T04:03:10.794Z,7.06
2023-02-04T04:05:37.737Z,7.05
2023-02-04T04:08:04.722Z,7.03
2023-02-04T04:10:31.835Z,7.02
2023-02-04T04:12:58.898Z,7.01
2023-02-04T04:15:25.940Z,6.99
2023-02-04T04:17:52.795Z,6.98
2023-02-04T04:20:19.688Z,6.97
2023-02-04T04:22:46.544Z,6.95
2023-02-04T04:25:13.387Z,6.93
2023-02-04T04:27:40.252Z,6.94
2023-02-04T04:30:07.417Z,6.91
2023-02-04T04:32:34.241Z,6.91
2023-02-04T04:35:01.065Z,6.89
2023-02-04T04:37:27.893Z,6.89
2023-02-04T04:39:54.727Z,6.87
2023-02-04T04:42:21.602Z,6.86
2023-02-04T04:44:48.451Z,6.85
2023-02-04T04:47:15.288Z,6.83
2023-02-04T04:49:42.139Z,6.80
2023-02-04T04:52:09.052Z,6.79
2023-02-04T04:54:35.919Z,6.79
2023-02-04T04:57:02.782Z,6.76
2023-02-04T04:59:29.646Z,6.76
2023-02-04T05:01:56.481Z,6.75
2023-02-04T05:04:23.391Z,6.73
2023-02-04T05:06:50.259Z,6.72
2023-02-04T05:09:17.399Z,6.70
2023-02-04T05:11:44.234Z,6.68
2023-02-04T05:14:11.154Z,6.68
2023-02-04T05:16:38.183Z,6.66
2023-02-04T05:19:05.133Z,6.64
2023-02-04T05:21:31.958Z,6.63
2023-02-04T05:23:58.811Z,6.61
2023-02-04T05:26:30.810Z,6.59
2023-02-04T05:29:00.444Z,6.57
2023-02-04T05:31:27.623Z,6.54
2023-02-04T05:33:54.738Z,6.54
2023-02-04T05:36:21.693Z,6.52
2023-02-04T05:38:48.795Z,6.51
2023-02-04T05:41:15.720Z,6.49
2023-02-04T05:43:43.047Z,6.49
2023-02-04T05:46:09.996Z,6.47
2023-02-04T05:48:36.912Z,6.44
2023-02-04T05:51:03.831Z,6.42
2023-02-04T05:53:30.660Z,6.38
2023-02-04T05:55:57.527Z,6.37
2023-02-04T05:58:24.354Z,6.35
2023-02-04T06:00:51.216Z,6.32
2023-02-04T06:03:19.467Z,6.32
2023-02-04T06:05:46.414Z,6.30
2023-02-04T06:08:15.722Z,6.27
2023-02-04T06:10:42.593Z,6.25
2023-02-04T06:13:09.551Z,6.22
2023-02-04T06:15:36.426Z,6.20
2023-02-04T06:18:03.322Z,6.19
2023-02-04T06:20:30.481Z,6.15
2023-02-04T06:22:57.631Z,6.15
2023-02-04T06:25:24.512Z,6.14
2023-02-04T06:27:51.659Z,6.12
2023-02-04T06:30:18.942Z,6.12
2023-02-04T06:32:45.774Z,6.10
2023-02-04T06:35:13.057Z,6.09
2023-02-04T06:37:39.966Z,6.07
2023-02-04T06:40:08.570Z,6.06
2023-02-04T06:42:35.633Z,6.05
2023-02-04T06:45:02.841Z,6.02
2023-02-04T06:47:29.768Z,6.00
2023-02-04T06:49:56.609Z,5.98
2023-02-04T06:52:23.454Z,5.96
2023-02-04T06:54:50.326Z,5.94
2023-02-04T06:57:17.256Z,5.93
2023-02-04T06:59:44.116Z,5.90
2023-02-04T07:02:11.480Z,5.88
2023-02-04T07:04:38.374Z,5.87
2023-02-04T07:07:05.313Z,5.86
2023-02-04T07:09:32.207Z,5.85
2023-02-04T07:11:59.069Z,5.83
2023-02-04T07:14:25.907Z,5.83
2023-02-04T07:16:52.786Z,5.83
2023-02-04T07:19:21.155Z,5.81
2023-02-04T07:21:48.162Z,5.81
2023-02-04T07:24:14.997Z,5.81
2023-02-04T07:26:41.870Z,5.80
2023-02-04T07:29:14.832Z,5.79
2023-02-04T07:31:45.786Z,5.79
2023-02-04T07:34:15.886Z,5.80
2023-02-04T07:36:42.749Z,5.80
2023-02-04T07:39:09.964Z,5.80
2023-02-04T07:41:36.891Z,5.82
2023-02-04T07:44:04.033Z,5.82
2023-02-04T07:46:31.079Z,5.83
2023-02-04T07:48:57.947Z,5.84
2023-02-04T07:51:27.757Z,5.85
2023-02-04T07:53:56.051Z,5.87
2023-02-04T07:56:22.977Z,5.88
2023-02-04T07:58:49.836Z,5.90
2023-02-04T08:01:16.916Z,5.92
2023-02-04T08:03:44.231Z,5.94
2023-02-04T08:06:11.139Z,5.97
2023-02-04T08:08:38.109Z,6.00
2023-02-04T08:11:05.289Z,6.03
2023-02-04T08:13:32.195Z,6.05
2023-02-04T08:15:59.054Z,6.08
2023-02-04T08:18:26.026Z,6.12
2023-02-04T08:20:52.902Z,6.16
2023-02-04T08:23:19.800Z,6.19
2023-02-04T08:25:46.648Z,6.24
2023-02-04T08:28:13.518Z,6.28
2023-02-04T08:30:40.410Z,6.34
2023-02-04T08:33:07.273Z,6.37
2023-02-04T08:35:34.171Z,6.42
2023-02-04T08:38:01.027Z,6.47
2023-02-04T08:40:27.983Z,6.53
2023-02-04T08:42:54.827Z,6.60
2023-02-04T08:45:21.744Z,6.66
2023-02-04T08:47:48.948Z,6.72
2023-02-04T08:50:15.976Z,6.78
2023-02-04T08:52:42.840Z,6.85
2023-02-04T08:55:09.833Z,6.91
2023-02-04T08:57:36.707Z,6.97
2023-02-04T09:00:04.207Z,7.04
2023-02-04T09:02:31.075Z,7.09
2023-02-04T09:05:09.100Z,7.15
2023-02-04T09:07:37.010Z,7.20
2023-02-04T09:10:03.900Z,7.23
2023-02-04T09:12:30.790Z,7.27
2023-02-04T09:14:57.617Z,7.32
2023-02-04T09:17:24.502Z,7.37
2023-02-04T09:19:51.355Z,7.42
2023-02-04T09:22:18.196Z,7.46
2023-02-04T09:24:45.050Z,7.52
2023-02-04T09:27:12.063Z,7.57
2023-02-04T09:29:38.947Z,7.60
2023-02-04T09:32:06.933Z,7.64
2023-02-04T09:34:33.879Z,7.69
2023-02-04T09:37:00.746Z,7.73
2023-02-04T09:39:28.506Z,7.77
2023-02-04T09:41:55.637Z,7.81
2023-02-04T09:44:24.729Z,7.87
2023-02-04T09:46:55.776Z,7.92
2023-02-04T09:49:23.099Z,8.00
2023-02-04T09:51:50.344Z,8.06
2023-02-04T09:54:19.564Z,8.12
2023-02-04T09:56:47.363Z,8.18
2023-02-04T09:59:22.487Z,8.21
2023-02-04T10:02:00.601Z,8.23
2023-02-04T10:04:27.787Z,8.27
2023-02-04T10:06:58.442Z,8.28
2023-02-04T10:09:25.538Z,8.29
2023-02-04T10:11:52.395Z,8.30
2023-02-04T10:14:21.369Z,8.31
2023-02-04T10:16:58.793Z,8.32
2023-02-04T10:19:27.210Z,8.34
2023-02-04T10:21:54.247Z,8.34
2023-02-04T10:24:26.258Z,8.34
2023-02-04T10:26:53.947Z,8.33
2023-02-04T10:29:25.416Z,8.33
2023-02-04T10:31:53.019Z,8.33
2023-02-04T10:34:22.737Z,8.34
2023-02-04T10:36:52.634Z,8.35
2023-02-04T10:39:27.526Z,8.35
2023-02-04T10:41:56.584Z,8.37
2023-02-04T10:44:27.767Z,8.41
2023-02-04T10:47:15.791Z,8.45
2023-02-04T10:49:52.291Z,8.56
2023-02-04T10:52:20.743Z,8.65
2023-02-04T10:54:47.898Z,8.74
2023-02-04T10:57:18.300Z,8.88
2023-02-04T10:59:46.198Z,8.98
2023-02-04T11:02:31.435Z,9.10
2023-02-04T11:04:58.310Z,9.16
2023-02-04T11:07:25.157Z,9.21
2023-02-04T11:09:52.241Z,9.25
2023-02-04T11:12:23.923Z,9.29
2023-02-04T11:14:58.171Z,9.33
2023-02-04T11:17:35.063Z,9.34
2023-02-04T11:20:14.502Z,9.35
2023-02-04T11:22:45.688Z,9.38
2023-02-04T11:25:35.208Z,9.42
2023-02-04T11:28:14.209Z,9.47
2023-02-04T11:30:41.261Z,9.52
2023-02-04T11:33:33.769Z,9.59
2023-02-04T11:36:04.323Z,9.64
2023-02-04T11:38:32.338Z,9.70
2023-02-04T11:41:00.173Z,9.77
2023-02-04T11:43:27.385Z,9.80
2023-02-04T11:46:05.653Z,9.84
2023-02-04T11:48:33.010Z,9.83
2023-02-04T11:51:01.848Z,9.85
2023-02-04T11:53:32.157Z,9.86
2023-02-04T11:55:59.133Z,9.82
2023-02-04T11:58:28.867Z,9.82
2023-02-04T12:00:55.702Z,9.79
2023-02-04T12:03:23.816Z,9.76
2023-02-04T12:05:50.796Z,9.73
2023-02-04T12:08:23.648Z,9.69
2023-02-04T12:11:02.771Z,9.66
2023-02-04T12:13:30.938Z,9.67
2023-02-04T12:16:07.376Z,9.73
2023-02-04T12:18:35.236Z,9.82
2023-02-04T12:21:04.219Z,9.96
2023-02-04T12:23:31.397Z,10.12
2023-02-04T12:25:58.620Z,10.27
2023-02-04T12:28:27.805Z,10.40
2023-02-04T12:30:55.652Z,10.56
2023-02-04T12:33:22.836Z,10.72
2023-02-04T12:35:49.814Z,10.87
2023-02-04T12:38:16.744Z,11.02
2023-02-04T12:40:43.652Z,11.15
2023-02-04T12:43:10.557Z,11.24
2023-02-04T12:45:38.172Z,11.27
2023-02-04T12:48:05.158Z,11.23
2023-02-04T12:52:22.232Z,11.55
2023-02-04T12:54:49.139Z,11.32
2023-02-04T12:57:19.599Z,11.16
2023-02-04T12:59:47.673Z,11.03
2023-02-04T13:02:15.323Z,10.91
2023-02-04T13:04:42.509Z,10.80
2023-02-04T13:07:10.282Z,10.66
2023-02-04T13:09:37.377Z,10.61
2023-02-04T13:12:04.626Z,10.51
2023-02-04T13:14:32.549Z,10.41
2023-02-04T13:16:59.794Z,10.30
2023-02-04T13:19:26.727Z,10.27
2023-02-04T13:21:53.677Z,10.26
2023-02-04T13:24:20.692Z,10.23
2023-02-04T13:26:47.605Z,10.20
2023-02-04T13:29:14.589Z,10.12
2023-02-04T13:31:41.637Z,10.02
2023-02-04T13:34:08.671Z,9.95
2023-02-04T13:36:35.591Z,9.92
2023-02-04T13:39:02.602Z,9.91
2023-02-04T13:41:29.667Z,9.92
2023-02-04T13:43:57.405Z,9.95
2023-02-04T13:46:24.698Z,10.00
2023-02-04T13:48:51.967Z,10.10
2023-02-04T13:51:19.177Z,10.20
2023-02-04T13:53:46.098Z,10.28
2023-02-04T13:56:13.183Z,10.40
2023-02-04T13:58:43.705Z,10.57
2023-02-04T14:01:12.145Z,10.79
2023-02-04T14:03:39.656Z,11.00
2023-02-04T14:06:07.100Z,11.16
2023-02-04T14:08:34.046Z,11.30
2023-02-04T14:11:01.445Z,11.40
2023-02-04T14:13:28.372Z,11.50
2023-02-04T14:15:55.283Z,11.56
2023-02-04T14:18:22.207Z,11.60
2023-02-04T14:20:49.179Z,11.58
2023-02-04T14:23:16.101Z,11.60
2023-02-04T14:25:43.080Z,11.65
2023-02-04T14:28:10.136Z,11.74
2023-02-04T14:30:37.939Z,11.86
2023-02-04T14:33:04.961Z,11.99
2023-02-04T14:35:32.607Z,12.12
2023-02-04T14:37:59.756Z,12.27
2023-02-04T14:40:26.772Z,12.42
2023-02-04T14:42:53.833Z,12.53
2023-02-04T14:45:20.748Z,12.61
2023-02-04T14:47:47.774Z,12.70
2023-02-04T14:50:16.737Z,12.80
2023-02-04T14:52:43.746Z,12.86
2023-02-04T14:55:12.714Z,12.91
2023-02-04T14:57:39.635Z,12.95
2023-02-04T15:00:07.127Z,13.01
2023-02-04T15:02:34.446Z,13.02
2023-02-04T15:05:01.699Z,13.08
2023-02-04T15:07:28.776Z,13.04
2023-02-04T15:09:55.692Z,12.98
2023-02-04T15:12:22.629Z,12.95
2023-02-04T15:14:49.562Z,12.88
2023-02-04T15:17:16.656Z,12.79
2023-02-04T15:19:43.591Z,12.70
2023-02-04T15:22:10.751Z,12.50
2023-02-04T15:24:37.700Z,12.28
2023-02-04T15:27:04.929Z,12.08
2023-02-04T15:29:32.628Z,11.83
2023-02-04T15:31:59.762Z,11.61
2023-02-04T15:34:26.868Z,11.40
2023-02-04T15:36:53.770Z,11.24
2023-02-04T15:39:20.666Z,11.12
2023-02-04T15:41:47.571Z,11.01
2023-02-04T15:44:14.505Z,10.88
2023-02-04T15:46:41.451Z,10.76
2023-02-04T15:49:09.329Z,10.64
2023-02-04T15:51:36.267Z,10.54
2023-02-04T15:54:03.298Z,10.44
2023-02-04T15:56:30.224Z,10.32
2023-02-04T15:58:57.123Z,10.19
2023-02-04T16:01:24.159Z,10.03
2023-02-04T16:03:56.124Z,9.92
2023-02-04T16:06:23.951Z,9.77
2023-02-04T16:08:51.078Z,9.66
2023-02-04T16:11:18.334Z,9.53
2023-02-04T16:13:45.280Z,9.43
2023-02-04T16:16:12.306Z,9.33
2023-02-04T16:18:39.310Z,9.22
2023-02-04T16:21:06.341Z,9.10
2023-02-04T16:23:33.375Z,8.98
2023-02-04T16:26:00.314Z,8.84
2023-02-04T16:28:27.240Z,8.71
2023-02-04T16:30:54.241Z,8.59
2023-02-04T16:33:21.357Z,8.49
2023-02-04T16:36:04.763Z,8.36
2023-02-04T16:38:32.124Z,8.25
2023-02-04T16:40:59.862Z,8.17
2023-02-04T16:43:26.876Z,8.09
2023-02-04T16:45:54.853Z,8.00
2023-02-04T16:48:21.829Z,7.89
2023-02-04T16:50:49.036Z,7.83
2023-02-04T16:53:16.177Z,7.76
2023-02-04T16:55:44.639Z,7.68
2023-02-04T16:58:13.109Z,7.61
2023-02-04T17:00:42.129Z,7.50
2023-02-04T17:03:11.250Z,7.42
2023-02-04T17:05:39.342Z,7.31
2023-02-04T17:08:06.721Z,7.24
2023-02-04T17:10:52.440Z,7.17
2023-02-04T17:13:20.400Z,7.05
2023-02-04T17:15:47.354Z,6.94
2023-02-04T17:18:14.287Z,6.86
2023-02-04T17:20:41.233Z,6.78
2023-02-04T17:23:08.371Z,6.68
2023-02-04T17:25:35.434Z,6.60
2023-02-04T17:28:02.479Z,6.51
2023-02-04T17:30:29.499Z,6.43
2023-02-04T17:32:56.487Z,6.34
2023-02-04T17:35:23.397Z,6.27
2023-02-04T17:37:50.332Z,6.20
2023-02-04T17:40:17.630Z,6.14
2023-02-04T17:42:44.528Z,6.08
2023-02-04T17:45:11.841Z,6.01
2023-02-04T17:47:39.590Z,5.95
2023-02-04T17:50:09.944Z,5.89
2023-02-04T17:52:38.545Z,5.83
2023-02-04T17:55:22.226Z,5.78
2023-02-04T17:57:50.056Z,5.73
2023-02-04T18:00:20.233Z,5.67
2023-02-04T18:02:50.962Z,5.62
2023-02-04T18:05:21.889Z,5.60
2023-02-04T18:08:20.638Z,5.54
2023-02-04T18:10:53.460Z,5.51
2023-02-04T18:13:32.838Z,5.46
2023-02-04T18:16:23.066Z,5.46
2023-02-04T18:18:55.958Z,5.46
2023-02-04T18:21:31.973Z,5.44
2023-02-04T18:24:22.586Z,5.43
2023-02-04T18:26:53.395Z,5.43
2023-02-04T18:29:31.028Z,5.42
2023-02-04T18:32:33.678Z,5.43
2023-02-04T18:35:14.344Z,5.42
2023-02-04T18:37:50.854Z,5.42
2023-02-04T18:40:30.837Z,5.41
2023-02-04T18:43:25.546Z,5.42
2023-02-04T18:45:53.361Z,5.41
2023-02-04T18:48:20.199Z,5.41
2023-02-04T18:50:50.071Z,5.42
2023-02-04T18:53:23.659Z,5.43
2023-02-04T18:55:53.891Z,5.45
2023-02-04T18:58:40.248Z,5.44
2023-02-04T19:01:10.161Z,5.44
2023-02-04T19:03:45.362Z,5.43
2023-02-04T19:06:46.171Z,5.43
2023-02-04T19:09:13.545Z,5.43
2023-02-04T19:12:21.709Z,5.43
2023-02-04T19:14:48.901Z,5.41
2023-02-04T19:17:26.770Z,5.41
2023-02-04T19:20:17.782Z,5.39
2023-02-04T19:22:49.715Z,5.39
2023-02-04T19:25:29.745Z,5.38
2023-02-04T19:28:00.749Z,5.37
2023-02-04T19:30:27.571Z,5.35
2023-02-04T19:33:01.688Z,5.32
2023-02-04T19:35:38.971Z,5.30
2023-02-04T19:38:41.713Z,5.28
2023-02-04T19:41:44.958Z,5.26
2023-02-04T19:44:15.064Z,5.28
2023-02-04T19:46:43.586Z,5.26
2023-02-04T19:49:34.277Z,5.26
2023-02-04T19:52:01.222Z,5.24
2023-02-04T19:54:38.563Z,5.25
2023-02-04T19:57:24.172Z,5.26
2023-02-04T19:59:55.438Z,5.25
2023-02-04T20:02:36.286Z,5.25
2023-02-04T20:05:18.960Z,5.25
2023-02-04T20:07:45.939Z,5.27
2023-02-04T20:10:38.998Z,5.26
2023-02-04T20:13:19.244Z,5.25
2023-02-04T20:15:46.485Z,5.26
2023-02-04T20:18:19.993Z,5.26
2023-02-04T20:20:47.273Z,5.25
2023-02-04T20:23:33.149Z,5.24
2023-02-04T20:26:01.073Z,5.23
2023-02-04T20:28:39.984Z,5.23
2023-02-04T20:31:31.343Z,5.23
2023-02-04T20:33:59.748Z,5.22
2023-02-04T20:36:26.650Z,5.22
2023-02-04T20:39:26.863Z,5.22
2023-02-04T20:41:53.911Z,5.19
2023-02-04T20:44:28.493Z,5.20
2023-02-04T20:47:20.335Z,5.19
2023-02-04T20:49:56.814Z,5.20
2023-02-04T20:52:43.521Z,5.18
2023-02-04T20:55:31.443Z,5.18
2023-02-04T20:58:26.839Z,5.18
2023-02-04T21:00:55.984Z,5.17
2023-02-04T21:03:28.172Z,5.18
2023-02-04T21:05:58.935Z,5.17
2023-02-04T21:08:33.579Z,5.16
2023-02-04T21:11:01.655Z,5.17
2023-02-04T21:13:28.719Z,5.16
2023-02-04T21:15:56.493Z,5.16
2023-02-04T21:18:23.496Z,5.15
2023-02-04T21:20:50.527Z,5.15
2023-02-04T21:23:18.638Z,5.14
2023-02-04T21:25:45.922Z,5.13
2023-02-04T21:28:13.299Z,5.13
2023-02-04T21:30:46.475Z,5.12
2023-02-04T21:33:16.045Z,5.11
2023-02-04T21:35:43.892Z,5.10
2023-02-04T21:38:11.011Z,5.07
2023-02-04T21:40:38.849Z,5.08
2023-02-04T21:43:08.017Z,5.06
2023-02-04T21:45:37.877Z,5.05
2023-02-04T21:48:05.356Z,5.04
2023-02-04T21:50:32.937Z,5.03
2023-02-04T21:53:00.186Z,5.01
2023-02-04T21:55:28.676Z,4.99
2023-02-04T21:57:55.748Z,4.97
2023-02-04T22:00:23.783Z,4.95
2023-02-04T22:02:52.581Z,4.95
2023-02-04T22:05:21.204Z,4.93
2023-02-04T22:07:48.730Z,4.93
2023-02-04T22:10:20.426Z,4.91
2023-02-04T22:12:47.488Z,4.89
2023-02-04T22:15:28.525Z,4.90
2023-02-04T22:17:55.530Z,4.89
2023-02-04T22:20:25.427Z,4.87
2023-02-04T22:22:52.472Z,4.87
2023-02-04T22:25:21.361Z,4.84
2023-02-04T22:27:48.930Z,4.82
2023-02-04T22:30:17.254Z,4.81
2023-02-04T22:32:44.358Z,4.80
2023-02-04T22:35:11.919Z,4.77
2023-02-04T22:37:40.843Z,4.75
2023-02-04T22:40:10.065Z,4.73
2023-02-04T22:42:37.044Z,4.72
2023-02-04T22:45:04.961Z,4.71
2023-02-04T22:47:32.108Z,4.72
2023-02-04T22:49:59.024Z,4.71
2023-02-04T22:52:26.069Z,4.71
2023-02-04T22:54:53.112Z,4.71
2023-02-04T22:57:20.032Z,4.71
2023-02-04T22:59:47.044Z,4.70
2023-02-04T23:02:14.206Z,4.68
2023-02-04T23:04:43.869Z,4.67
2023-02-04T23:07:13.022Z,4.64
2023-02-04T23:09:40.625Z,4.62
2023-02-04T23:12:14.070Z,4.58
2023-02-04T23:14:47.268Z,4.57
2023-02-04T23:17:16.092Z,4.55
2023-02-04T23:19:43.086Z,4.53
2023-02-04T23:22:11.741Z,4.52
2023-02-04T23:24:40.448Z,4.48
2023-02-04T23:27:10.817Z,4.48
2023-02-04T23:29:39.451Z,4.45
2023-02-04T23:32:07.242Z,4.43
2023-02-04T23:34:34.885Z,4.41
2023-02-04T23:37:02.076Z,4.38
2023-02-04T23:39:29.083Z,4.36
2023-02-04T23:41:56.073Z,4.33
2023-02-04T23:44:23.069Z,4.31
2023-02-04T23:46:50.144Z,4.29
2023-02-04T23:49:17.201Z,4.27
2023-02-04T23:51:44.204Z,4.24
2023-02-04T23:54:11.267Z,4.22
2023-02-04T23:56:38.513Z,4.19
2023-02-04T23:59:05.946Z,4.17
